createdAt,value
2023-04-16T00:02:13.860Z,3.65
2023-04-16T00:04:41.492Z,3.72
2023-04-16T00:07:08.883Z,4.70
2023-04-16T00:09:36.124Z,3.90
2023-04-16T00:12:03.767Z,4.30
2023-04-16T00:14:31.312Z,3.97
2023-04-16T00:16:58.539Z,3.55
2023-04-16T00:19:25.860Z,4.10
2023-04-16T00:21:53.085Z,4.70
2023-04-16T00:24:20.337Z,4.88
2023-04-16T00:26:47.578Z,4.38
2023-04-16T00:29:15.594Z,4.65
2023-04-16T00:31:42.883Z,6.05
2023-04-16T00:34:10.274Z,5.35
2023-04-16T00:36:37.566Z,5.78
2023-04-16T00:39:05.669Z,5.18
2023-04-16T00:41:33.043Z,4.80
2023-04-16T00:44:00.296Z,4.55
2023-04-16T00:46:27.673Z,5.05
2023-04-16T00:48:55.843Z,4.68
2023-04-16T00:51:23.201Z,4.13
2023-04-16T00:53:50.660Z,5.25
2023-04-16T00:56:18.535Z,4.57
2023-04-16T00:58:45.777Z,4.75
2023-04-16T01:01:14.442Z,5.13
2023-04-16T01:03:44.770Z,5.15
2023-04-16T01:06:12.492Z,5.13
2023-04-16T01:08:40.136Z,5.20
2023-04-16T01:11:07.528Z,5.18
2023-04-16T01:13:39.325Z,4.88
2023-04-16T01:16:08.047Z,4.57
2023-04-16T01:18:36.187Z,5.15
2023-04-16T01:21:04.067Z,4.65
2023-04-16T01:23:31.602Z,4.45
2023-04-16T01:25:58.931Z,4.45
2023-04-16T01:28:26.295Z,4.60
2023-04-16T01:30:53.485Z,5.50
2023-04-16T01:33:40.142Z,4.93
2023-04-16T01:36:07.840Z,5.15
2023-04-16T01:38:35.033Z,5.85
2023-04-16T01:41:02.259Z,5.80
2023-04-16T01:43:29.665Z,5.47
2023-04-16T01:46:08.767Z,5.63
2023-04-16T01:51:04.939Z,5.75
2023-04-16T01:53:32.248Z,5.68
2023-04-16T01:55:59.582Z,7.60
2023-04-16T01:58:29.289Z,7.25
2023-04-16T02:00:56.926Z,6.47
2023-04-16T02:03:24.967Z,6.82
2023-04-16T02:05:53.438Z,6.97
2023-04-16T02:08:21.020Z,6.55
2023-04-16T02:10:48.569Z,7.15
2023-04-16T02:13:16.964Z,6.73
2023-04-16T02:15:50.036Z,8.20
2023-04-16T02:18:25.355Z,6.65
2023-04-16T02:20:52.863Z,6.72
2023-04-16T02:23:20.302Z,7.55
2023-04-16T02:25:48.345Z,7.40
2023-04-16T02:28:17.115Z,8.93
2023-04-16T02:30:46.401Z,7.03
2023-04-16T02:33:16.132Z,7.68
2023-04-16T02:35:54.474Z,6.43
2023-04-16T02:38:21.793Z,8.23
2023-04-16T02:40:49.028Z,7.72
2023-04-16T02:43:17.424Z,8.77
2023-04-16T02:45:45.145Z,7.55
2023-04-16T02:48:12.512Z,6.43
2023-04-16T02:50:39.825Z,7.38
2023-04-16T02:53:07.829Z,6.45
2023-04-16T02:55:35.103Z,7.95
2023-04-16T02:58:02.356Z,6.80
2023-04-16T03:00:29.782Z,6.95
2023-04-16T03:02:57.294Z,6.57
2023-04-16T03:05:25.093Z,7.25
2023-04-16T03:07:56.574Z,6.20
2023-04-16T03:10:24.192Z,5.85
2023-04-16T03:12:51.745Z,6.68
2023-04-16T03:15:19.094Z,7.13
2023-04-16T03:17:46.375Z,7.45
2023-04-16T03:20:14.475Z,7.28
2023-04-16T03:22:42.071Z,7.00
2023-04-16T03:25:09.633Z,6.50
2023-04-16T03:27:37.086Z,7.30
2023-04-16T03:30:05.076Z,5.85
2023-04-16T03:32:34.988Z,6.38
2023-04-16T03:37:31.907Z,7.57
2023-04-16T03:39:59.262Z,9.35
2023-04-16T03:42:27.135Z,6.05
2023-04-16T03:44:54.444Z,7.40
2023-04-16T03:47:23.506Z,8.07
2023-04-16T03:49:54.676Z,6.57
2023-04-16T03:52:21.930Z,6.40
2023-04-16T03:54:49.291Z,7.60
2023-04-16T03:57:35.050Z,7.07
2023-04-16T04:00:09.834Z,9.15
2023-04-16T04:02:54.471Z,7.85
2023-04-16T04:05:21.826Z,8.73
2023-04-16T04:07:49.964Z,8.30
2023-04-16T04:10:17.258Z,8.07
2023-04-16T04:12:44.676Z,8.73
2023-04-16T04:15:12.884Z,8.73
2023-04-16T04:17:40.251Z,8.52
2023-04-16T04:20:07.817Z,8.55
2023-04-16T04:22:35.355Z,8.75
2023-04-16T04:25:02.674Z,9.07
2023-04-16T04:27:32.633Z,8.82
2023-04-16T04:29:59.960Z,11.43
2023-04-16T04:32:28.164Z,10.52
2023-04-16T04:34:55.549Z,9.27
2023-04-16T04:37:22.812Z,11.20
2023-04-16T04:39:50.289Z,11.35
2023-04-16T04:42:18.622Z,11.82
2023-04-16T04:44:46.608Z,11.05
2023-04-16T04:47:14.437Z,12.00
2023-04-16T04:49:41.859Z,11.00
2023-04-16T04:52:09.221Z,10.82
2023-04-16T04:54:36.553Z,10.40
2023-04-16T04:57:03.802Z,10.73
2023-04-16T04:59:31.275Z,11.20
2023-04-16T05:01:58.634Z,10.57
2023-04-16T05:04:26.236Z,11.90
2023-04-16T05:06:53.466Z,10.88
2023-04-16T05:09:20.662Z,11.80
2023-04-16T05:11:47.858Z,13.32
2023-04-16T05:14:15.105Z,13.02
2023-04-16T05:16:42.324Z,11.30
2023-04-16T05:19:09.800Z,10.25
2023-04-16T05:21:37.251Z,10.75
2023-04-16T05:24:04.469Z,12.38
2023-04-16T05:26:31.698Z,12.43
2023-04-16T05:28:58.939Z,13.05
2023-04-16T05:31:26.693Z,12.80
2023-04-16T05:33:53.902Z,12.45
2023-04-16T05:36:21.387Z,9.40
2023-04-16T05:38:48.628Z,12.38
2023-04-16T05:41:15.922Z,11.13
2023-04-16T05:43:43.195Z,12.30
2023-04-16T05:46:10.924Z,11.85
2023-04-16T05:48:38.183Z,11.75
2023-04-16T05:51:05.695Z,12.38
2023-04-16T05:53:32.939Z,11.63
2023-04-16T05:56:00.149Z,10.93
2023-04-16T05:58:27.369Z,12.00
2023-04-16T06:00:54.597Z,16.05
2023-04-16T06:03:21.910Z,12.02
2023-04-16T06:05:49.277Z,12.55
2023-04-16T06:08:16.624Z,13.80
2023-04-16T06:10:43.820Z,11.13
2023-04-16T06:13:11.161Z,13.40
2023-04-16T06:15:38.366Z,11.68
2023-04-16T06:18:06.154Z,12.80
2023-04-16T06:20:33.414Z,13.30
2023-04-16T06:23:00.817Z,13.05
2023-04-16T06:25:28.064Z,13.23
2023-04-16T06:27:55.324Z,13.55
2023-04-16T06:30:22.689Z,13.70
2023-04-16T06:32:50.211Z,13.20
2023-04-16T06:35:20.105Z,12.88
2023-04-16T06:37:47.671Z,11.95
2023-04-16T06:40:14.937Z,14.50
2023-04-16T06:42:45.304Z,13.65
2023-04-16T06:45:13.093Z,13.18
2023-04-16T06:47:40.589Z,14.10
2023-04-16T06:50:08.154Z,13.90
2023-04-16T06:52:35.564Z,15.05
2023-04-16T06:55:03.058Z,13.75
2023-04-16T06:57:30.481Z,13.95
2023-04-16T06:59:57.733Z,12.88
2023-04-16T07:02:25.086Z,12.20
2023-04-16T07:04:52.460Z,13.57
2023-04-16T07:07:19.729Z,15.15
2023-04-16T07:09:47.008Z,13.05
2023-04-16T07:12:14.310Z,13.95
2023-04-16T07:14:42.019Z,12.32
2023-04-16T07:17:09.257Z,13.90
2023-04-16T07:19:37.061Z,12.75
2023-04-16T07:22:04.741Z,13.10
2023-04-16T07:24:32.616Z,12.25
2023-04-16T07:26:59.999Z,11.88
2023-04-16T07:29:27.289Z,14.68
2023-04-16T07:31:54.530Z,13.32
2023-04-16T07:34:21.741Z,13.00
2023-04-16T07:36:49.032Z,13.63
2023-04-16T07:39:16.274Z,12.65
2023-04-16T07:41:44.092Z,15.50
2023-04-16T07:44:11.409Z,13.65
2023-04-16T07:46:46.860Z,13.73
2023-04-16T07:49:14.809Z,13.52
2023-04-16T07:51:42.083Z,12.77
2023-04-16T07:54:09.326Z,13.80
2023-04-16T07:56:36.638Z,14.18
2023-04-16T07:59:18.482Z,16.15
2023-04-16T08:01:49.837Z,13.10
2023-04-16T08:04:23.014Z,15.38
2023-04-16T08:06:51.501Z,14.35
2023-04-16T08:09:19.795Z,13.32
2023-04-16T08:11:49.184Z,15.43
2023-04-16T08:14:19.610Z,12.55
2023-04-16T08:16:47.176Z,13.82
2023-04-16T08:19:14.422Z,14.77
2023-04-16T08:21:41.715Z,12.23
2023-04-16T08:24:09.048Z,11.98
2023-04-16T08:26:36.322Z,11.63
2023-04-16T08:29:03.603Z,11.10
2023-04-16T08:31:31.224Z,12.48
2023-04-16T08:33:58.501Z,11.77
2023-04-16T08:36:25.698Z,11.75
2023-04-16T08:38:52.893Z,11.85
2023-04-16T08:41:22.919Z,13.77
2023-04-16T08:43:51.912Z,11.77
2023-04-16T08:46:21.546Z,13.57
2023-04-16T08:48:50.120Z,11.20
2023-04-16T08:51:18.058Z,12.10
2023-04-16T08:53:54.977Z,11.35
2023-04-16T08:56:23.775Z,13.40
2023-04-16T08:58:51.927Z,12.95
2023-04-16T09:01:19.637Z,11.98
2023-04-16T09:03:50.141Z,12.93
2023-04-16T09:06:18.382Z,13.77
2023-04-16T09:08:49.110Z,13.60
2023-04-16T09:11:18.753Z,12.02
2023-04-16T09:13:47.015Z,12.70
2023-04-16T09:16:15.299Z,13.75
2023-04-16T09:18:42.622Z,13.73
2023-04-16T09:21:13.354Z,13.80
2023-04-16T09:23:41.168Z,15.07
2023-04-16T09:26:08.519Z,14.70
2023-04-16T09:28:55.988Z,12.32
2023-04-16T09:31:23.235Z,13.60
2023-04-16T09:34:04.067Z,12.90
2023-04-16T09:36:32.654Z,11.57
2023-04-16T09:39:00.387Z,11.55
2023-04-16T09:41:28.785Z,12.48
2023-04-16T09:43:56.755Z,11.45
2023-04-16T09:46:30.278Z,12.30
2023-04-16T09:48:57.678Z,12.82
2023-04-16T09:51:26.984Z,13.52
2023-04-16T09:53:54.919Z,13.07
2023-04-16T09:56:25.139Z,11.02
2023-04-16T09:58:57.551Z,12.68
2023-04-16T10:01:25.468Z,13.82
2023-04-16T10:03:55.282Z,13.20
2023-04-16T10:06:23.543Z,12.98
2023-04-16T10:08:51.438Z,12.85
2023-04-16T10:11:19.359Z,13.25
2023-04-16T10:13:46.636Z,11.80
2023-04-16T10:16:13.956Z,12.05
2023-04-16T10:18:42.190Z,11.68
2023-04-16T10:21:13.086Z,12.48
2023-04-16T10:23:41.055Z,13.63
2023-04-16T10:26:08.463Z,13.63
2023-04-16T10:28:36.313Z,12.88
2023-04-16T10:31:08.659Z,11.35
2023-04-16T10:33:37.172Z,13.48
2023-04-16T10:36:17.468Z,13.00
2023-04-16T10:38:48.704Z,13.27
2023-04-16T10:41:16.314Z,14.02
2023-04-16T10:43:47.350Z,16.17
2023-04-16T10:46:18.721Z,15.13
2023-04-16T10:48:50.161Z,16.17
2023-04-16T10:51:25.029Z,14.80
2023-04-16T10:53:52.418Z,14.50
2023-04-16T10:56:27.040Z,14.63
2023-04-16T10:58:56.226Z,13.13
2023-04-16T11:03:50.914Z,14.05
2023-04-16T11:06:24.587Z,13.35
2023-04-16T11:08:55.083Z,15.57
2023-04-16T11:11:23.276Z,13.30
2023-04-16T11:13:50.711Z,13.35
2023-04-16T11:16:18.228Z,13.75
2023-04-16T11:18:51.316Z,11.90
2023-04-16T11:21:19.291Z,13.15
2023-04-16T11:23:53.296Z,11.35
2023-04-16T11:26:21.629Z,12.77
2023-04-16T11:28:48.887Z,12.50
2023-04-16T11:31:16.245Z,11.98
2023-04-16T11:33:44.138Z,12.07
2023-04-16T11:36:11.423Z,14.10
2023-04-16T11:38:41.203Z,13.25
2023-04-16T11:41:08.445Z,14.23
2023-04-16T11:43:35.714Z,14.48
2023-04-16T11:46:20.091Z,13.13
2023-04-16T11:48:52.888Z,14.60
2023-04-16T11:51:21.782Z,12.57
2023-04-16T11:53:53.166Z,13.80
2023-04-16T11:56:28.489Z,13.90
2023-04-16T11:59:11.718Z,13.10
2023-04-16T12:01:40.563Z,14.55
2023-04-16T12:04:09.168Z,13.35
2023-04-16T12:06:36.774Z,11.68
2023-04-16T12:09:23.203Z,12.98
2023-04-16T12:11:50.391Z,13.55
2023-04-16T12:14:17.755Z,15.85
2023-04-16T12:16:45.035Z,13.50
2023-04-16T12:19:13.111Z,14.10
2023-04-16T12:21:44.317Z,13.82
2023-04-16T12:24:15.369Z,14.27
2023-04-16T12:26:42.923Z,14.65
2023-04-16T12:29:21.042Z,13.63
2023-04-16T12:31:49.499Z,12.40
2023-04-16T12:34:17.381Z,13.30
2023-04-16T12:36:45.910Z,14.25
2023-04-16T12:39:13.572Z,14.77
2023-04-16T12:41:42.090Z,14.05
2023-04-16T12:44:11.944Z,12.95
2023-04-16T12:46:39.936Z,14.77
2023-04-16T12:49:07.512Z,14.50
2023-04-16T12:51:35.372Z,14.23
2023-04-16T12:54:03.115Z,14.60
2023-04-16T12:56:31.130Z,16.23
2023-04-16T12:58:58.533Z,14.05
2023-04-16T13:01:25.775Z,13.63
2023-04-16T13:03:53.357Z,16.60
2023-04-16T13:06:21.079Z,15.80
2023-04-16T13:08:48.332Z,14.77
2023-04-16T13:11:15.692Z,13.63
2023-04-16T13:13:43.420Z,13.73
2023-04-16T13:16:11.307Z,14.38
2023-04-16T13:18:39.387Z,17.30
2023-04-16T13:21:06.903Z,15.35
2023-04-16T13:23:35.218Z,14.88
2023-04-16T13:26:03.409Z,15.50
2023-04-16T13:28:31.407Z,14.52
2023-04-16T13:30:59.443Z,15.65
2023-04-16T13:33:27.363Z,17.53
2023-04-16T13:35:54.683Z,14.85
2023-04-16T13:38:21.983Z,15.00
2023-04-16T13:40:49.265Z,14.38
2023-04-16T13:43:17.480Z,13.88
2023-04-16T13:45:44.805Z,13.15
2023-04-16T13:48:12.097Z,12.32
2023-04-16T13:50:39.422Z,13.55
2023-04-16T13:53:06.942Z,13.25
2023-04-16T13:55:34.220Z,13.18
2023-04-16T13:58:01.570Z,14.77
2023-04-16T14:00:28.859Z,13.88
2023-04-16T14:02:56.346Z,13.07
2023-04-16T14:05:25.790Z,12.70
2023-04-16T14:07:54.385Z,13.52
2023-04-16T14:10:21.748Z,14.30
2023-04-16T14:12:49.094Z,13.52
2023-04-16T14:15:16.582Z,12.77
2023-04-16T14:17:44.208Z,11.20
2023-04-16T14:20:15.674Z,11.73
2023-04-16T14:22:44.391Z,12.52
2023-04-16T14:25:11.734Z,11.75
2023-04-16T14:27:39.132Z,12.18
2023-04-16T14:30:07.023Z,13.20
2023-04-16T14:32:34.342Z,14.07
2023-04-16T14:35:01.603Z,13.80
2023-04-16T14:37:28.850Z,14.05
2023-04-16T14:39:56.456Z,14.25
2023-04-16T14:42:23.698Z,13.30
2023-04-16T14:44:52.048Z,14.48
2023-04-16T14:47:19.323Z,13.17
2023-04-16T14:49:46.801Z,13.68
2023-04-16T14:52:14.010Z,13.07
2023-04-16T14:54:41.221Z,12.85
2023-04-16T14:57:08.522Z,13.68
2023-04-16T14:59:36.924Z,15.20
2023-04-16T15:02:04.308Z,14.33
2023-04-16T15:04:31.833Z,15.95
2023-04-16T15:06:59.360Z,15.45
2023-04-16T15:09:29.952Z,17.33
2023-04-16T15:11:58.094Z,14.27
2023-04-16T15:14:25.522Z,15.80
2023-04-16T15:16:52.817Z,17.45
2023-04-16T15:19:20.199Z,16.23
2023-04-16T15:21:48.829Z,15.60
2023-04-16T15:24:16.167Z,15.05
2023-04-16T15:26:43.486Z,17.10
2023-04-16T15:29:10.807Z,15.43
2023-04-16T15:31:38.100Z,16.50
2023-04-16T15:34:05.495Z,21.13
2023-04-16T15:36:33.222Z,17.48
2023-04-16T15:39:00.440Z,16.15
2023-04-16T15:41:30.691Z,16.48
2023-04-16T15:43:58.117Z,16.35
2023-04-16T15:46:25.671Z,16.45
2023-04-16T15:48:52.905Z,16.08
2023-04-16T15:51:20.258Z,16.85
2023-04-16T15:53:49.431Z,16.40
2023-04-16T15:56:17.064Z,16.67
2023-04-16T15:58:44.416Z,19.80
2023-04-16T16:01:11.887Z,16.60
2023-04-16T16:03:39.307Z,40.42
2023-04-16T16:06:08.501Z,28.67
2023-04-16T16:08:37.793Z,17.30
2023-04-16T16:11:05.234Z,21.50
2023-04-16T16:13:32.505Z,16.35
2023-04-16T16:15:59.914Z,14.35
2023-04-16T16:18:27.195Z,14.48
2023-04-16T16:20:56.965Z,15.13
2023-04-16T16:23:24.259Z,17.00
2023-04-16T16:25:52.033Z,15.25
2023-04-16T16:28:20.501Z,16.88
2023-04-16T16:30:48.016Z,17.73
2023-04-16T16:33:15.433Z,16.40
2023-04-16T16:35:42.659Z,15.73
2023-04-16T16:38:09.914Z,15.50
2023-04-16T16:40:37.639Z,17.75
2023-04-16T16:43:04.945Z,18.17
2023-04-16T16:45:32.382Z,16.90
2023-04-16T16:47:59.725Z,15.85
2023-04-16T16:50:27.072Z,18.73
2023-04-16T16:52:54.377Z,18.08
2023-04-16T16:55:21.740Z,16.25
2023-04-16T16:57:49.401Z,16.63
2023-04-16T17:00:19.861Z,16.92
2023-04-16T17:02:47.510Z,18.52
2023-04-16T17:05:15.041Z,16.95
2023-04-16T17:07:42.356Z,17.17
2023-04-16T17:10:15.882Z,16.55
2023-04-16T17:12:43.144Z,16.27
2023-04-16T17:15:10.826Z,17.13
2023-04-16T17:17:38.140Z,18.10
2023-04-16T17:20:09.298Z,16.40
2023-04-16T17:22:36.840Z,18.35
2023-04-16T17:25:04.308Z,18.00
2023-04-16T17:27:34.734Z,17.30
2023-04-16T17:30:02.362Z,18.30
2023-04-16T17:32:31.768Z,17.92
2023-04-16T17:35:01.767Z,18.02
2023-04-16T17:37:29.419Z,19.50
2023-04-16T17:39:57.178Z,21.30
2023-04-16T17:42:24.727Z,18.55
2023-04-16T17:44:52.382Z,19.05
2023-04-16T17:47:19.792Z,18.45
2023-04-16T17:49:47.197Z,18.58
2023-04-16T17:52:14.429Z,19.25
2023-04-16T17:54:42.575Z,18.23
2023-04-16T17:57:09.850Z,18.42
2023-04-16T17:59:37.201Z,18.58
2023-04-16T18:02:04.519Z,18.40
2023-04-16T18:04:31.988Z,18.30
2023-04-16T18:06:59.391Z,19.95
2023-04-16T18:09:27.346Z,20.75
2023-04-16T18:11:54.608Z,21.55
2023-04-16T18:14:22.000Z,18.85
2023-04-16T18:16:49.770Z,18.15
2023-04-16T18:19:17.133Z,19.50
2023-04-16T18:21:45.085Z,20.17
2023-04-16T18:24:12.564Z,17.88
2023-04-16T18:26:40.948Z,21.25
2023-04-16T18:29:09.202Z,20.65
2023-04-16T18:31:36.878Z,20.27
2023-04-16T18:34:04.226Z,19.73
2023-04-16T18:36:31.546Z,19.15
2023-04-16T18:39:01.794Z,20.40
2023-04-16T18:41:30.877Z,18.92
2023-04-16T18:43:58.635Z,20.17
2023-04-16T18:46:26.745Z,20.80
2023-04-16T18:48:54.162Z,21.02
2023-04-16T18:51:21.423Z,22.20
2023-04-16T18:53:48.656Z,22.00
2023-04-16T18:56:15.948Z,21.48
2023-04-16T18:58:43.305Z,21.05
2023-04-16T19:01:13.996Z,20.40
2023-04-16T19:03:41.337Z,21.33
2023-04-16T19:06:08.660Z,20.60
2023-04-16T19:08:35.995Z,22.52
2023-04-16T19:11:03.305Z,19.77
2023-04-16T19:13:30.874Z,19.55
2023-04-16T19:15:59.605Z,20.55
2023-04-16T19:18:27.035Z,23.70
2023-04-16T19:21:00.786Z,20.65
2023-04-16T19:23:28.491Z,24.30
2023-04-16T19:25:59.179Z,23.13
2023-04-16T19:28:26.582Z,22.17
2023-04-16T19:30:54.802Z,22.85
2023-04-16T19:33:22.032Z,22.50
2023-04-16T19:35:49.366Z,24.35
2023-04-16T19:38:16.597Z,24.08
2023-04-16T19:40:47.368Z,22.27
2023-04-16T19:43:14.786Z,27.30
2023-04-16T19:45:45.522Z,27.60
2023-04-16T19:48:13.089Z,24.42
2023-04-16T19:50:41.291Z,25.27
2023-04-16T19:53:09.149Z,25.80
2023-04-16T19:55:36.582Z,25.15
2023-04-16T19:58:07.036Z,23.73
2023-04-16T20:00:35.103Z,24.13
2023-04-16T20:03:02.689Z,24.23
2023-04-16T20:05:30.157Z,25.55
2023-04-16T20:07:57.595Z,22.33
2023-04-16T20:10:25.375Z,22.90
2023-04-16T20:12:52.851Z,25.23
2023-04-16T20:15:20.484Z,23.30
2023-04-16T20:17:47.923Z,23.92
2023-04-16T20:20:16.335Z,24.02
2023-04-16T20:22:43.825Z,25.40
2023-04-16T20:25:11.466Z,22.45
2023-04-16T20:27:38.759Z,25.15
2023-04-16T20:30:06.480Z,24.17
2023-04-16T20:32:33.818Z,24.15
2023-04-16T20:35:01.973Z,23.20
2023-04-16T20:37:29.320Z,25.80
2023-04-16T20:39:56.600Z,24.02
2023-04-16T20:42:26.389Z,24.10
2023-04-16T20:44:56.492Z,26.63
2023-04-16T20:47:24.447Z,24.55
2023-04-16T20:49:52.782Z,23.42
2023-04-16T20:52:20.481Z,24.08
2023-04-16T20:54:48.004Z,24.00
2023-04-16T20:57:15.387Z,24.00
2023-04-16T20:59:42.768Z,24.65
2023-04-16T21:02:10.138Z,25.23
2023-04-16T21:04:37.628Z,25.02
2023-04-16T21:07:05.304Z,24.38
2023-04-16T21:09:32.627Z,24.92
2023-04-16T21:11:59.905Z,24.35
2023-04-16T21:14:27.142Z,22.48
2023-04-16T21:16:54.846Z,22.25
2023-04-16T21:19:22.545Z,21.42
2023-04-16T21:21:49.945Z,21.40
2023-04-16T21:24:17.298Z,20.02
2023-04-16T21:26:44.596Z,19.95
2023-04-16T21:29:12.023Z,21.02
2023-04-16T21:31:39.582Z,19.85
2023-04-16T21:34:07.040Z,21.13
2023-04-16T21:36:35.040Z,20.35
2023-04-16T21:39:02.461Z,21.80
2023-04-16T21:41:29.756Z,21.58
2023-04-16T21:43:56.986Z,20.67
2023-04-16T21:46:25.436Z,20.50
2023-04-16T21:48:53.680Z,22.00
2023-04-16T21:51:28.788Z,22.73
2023-04-16T21:53:56.934Z,22.75
2023-04-16T21:56:25.114Z,23.98
2023-04-16T21:58:52.390Z,21.02
2023-04-16T22:01:19.624Z,25.20
2023-04-16T22:03:50.553Z,23.80
2023-04-16T22:06:18.376Z,22.50
2023-04-16T22:08:45.636Z,23.10
2023-04-16T22:11:12.911Z,22.15
2023-04-16T22:13:42.338Z,22.73
2023-04-16T22:16:11.591Z,24.27
2023-04-16T22:18:41.156Z,22.30
2023-04-16T22:23:35.942Z,20.33
2023-04-16T22:26:04.098Z,20.85
2023-04-16T22:28:31.545Z,22.05
2023-04-16T22:30:58.798Z,21.58
2023-04-16T22:33:26.140Z,21.73
2023-04-16T22:35:53.541Z,22.60
2023-04-16T22:38:21.360Z,19.95
2023-04-16T22:40:49.014Z,25.10
2023-04-16T22:43:17.663Z,21.45
2023-04-16T22:45:46.326Z,20.20
2023-04-16T22:48:13.736Z,20.98
2023-04-16T22:50:41.404Z,20.67
2023-04-16T22:53:08.809Z,20.23
2023-04-16T22:55:36.689Z,20.17
2023-04-16T22:58:03.881Z,20.48
2023-04-16T23:00:31.225Z,22.23
2023-04-16T23:02:58.538Z,20.55
2023-04-16T23:05:25.981Z,21.38
2023-04-16T23:07:53.236Z,22.67
2023-04-16T23:10:20.616Z,22.13
2023-04-16T23:12:47.960Z,21.30
2023-04-16T23:15:16.296Z,20.43
2023-04-16T23:17:43.634Z,22.10
2023-04-16T23:20:12.178Z,23.33
2023-04-16T23:22:39.845Z,20.25
2023-04-16T23:25:10.910Z,24.38
2023-04-16T23:27:38.302Z,22.08
2023-04-16T23:30:05.871Z,23.10
2023-04-16T23:32:34.238Z,24.02
2023-04-16T23:35:01.580Z,22.43
2023-04-16T23:37:28.851Z,22.73
2023-04-16T23:39:56.160Z,23.55
2023-04-16T23:42:23.377Z,22.30
2023-04-16T23:44:50.752Z,22.63
2023-04-16T23:47:18.064Z,25.15
2023-04-16T23:49:45.548Z,19.77
2023-04-16T23:52:12.860Z,22.25
2023-04-16T23:54:40.145Z,22.27
2023-04-16T23:57:07.401Z,24.73
2023-04-16T23:59:34.780Z,24.70
